Time;durP1;ratioP1;P1;durP2;ratioP2;P2;SDS_P1;SDS_P2;PMS_P1;PMS_P2;Temp;Humidity;BMP_temperature;BMP_pressure;BME280_temperature;BME280_humidity;BME280_pressure;Samples;Min_cycle;Max_cycle;Signal;HPM_P1;HPM_P2
2022/07/12 00:01:05;;;;;;;3.10;2.30;;;;;;;16.66;73.22;102344.13;4768599;30;20032;-80
2022/07/12 00:03:31;;;;;;;4.47;2.33;;;;;;;16.66;73.07;102348.63;4751946;30;20378;-80
2022/07/12 00:05:57;;;;;;;3.22;2.60;;;;;;;16.61;73.54;102340.69;4768428;30;20067;-80
2022/07/12 00:08:23;;;;;;;5.22;2.80;;;;;;;16.54;74.67;102333.72;4767874;30;20052;-80
2022/07/12 00:10:49;;;;;;;5.72;2.78;;;;;;;16.47;76.95;102335.69;4736659;30;20039;-80
2022/07/12 00:13:15;;;;;;;6.65;3.10;;;;;;;16.46;77.66;102333.91;4752106;30;20330;-80
2022/07/12 00:15:41;;;;;;;6.80;2.60;;;;;;;16.41;75.76;102330.47;4768157;30;20047;-80
2022/07/12 00:18:07;;;;;;;5.32;3.15;;;;;;;16.37;76.61;102331.47;4768184;30;20459;-80
2022/07/12 00:20:33;;;;;;;6.03;2.60;;;;;;;16.33;76.45;102329.75;4767928;30;20039;-80
2022/07/12 00:22:58;;;;;;;4.85;2.85;;;;;;;16.35;74.88;102327.94;4768394;30;20098;-80
2022/07/12 00:25:25;;;;;;;5.50;3.20;;;;;;;16.29;75.40;102334.28;4751872;30;20122;-80
2022/07/12 00:27:51;;;;;;;7.40;2.65;;;;;;;16.29;75.85;102328.06;4768191;30;20035;-80
2022/07/12 00:30:17;;;;;;;5.25;2.95;;;;;;;16.21;77.75;102328.22;4767486;30;20048;-80
2022/07/12 00:32:43;;;;;;;5.97;3.38;;;;;;;16.19;76.73;102337.19;4770564;30;20399;-80
2022/07/12 00:35:09;;;;;;;7.60;2.95;;;;;;;16.14;77.16;102326.59;4771234;30;20051;-80
2022/07/12 00:37:34;;;;;;;3.45;2.60;;;;;;;16.16;77.14;102318.56;4755530;30;20138;-80
2022/07/12 00:39:59;;;;;;;4.93;2.90;;;;;;;16.11;77.03;102321.31;4770970;30;20036;-80
2022/07/12 00:42:26;;;;;;;8.52;3.00;;;;;;;16.07;77.32;102315.19;4755476;30;20028;-79
2022/07/12 00:44:52;;;;;;;6.53;3.10;;;;;;;16.00;78.83;102326.00;4758821;30;20104;-80
2022/07/12 00:47:37;;;;;;;5.90;2.85;;;;;;;15.98;77.27;102327.84;4771167;30;20073;-80
2022/07/12 00:50:23;;;;;;;8.38;3.17;;;;;;;15.97;78.19;102326.06;4770851;30;20039;-80
2022/07/12 00:52:51;;;;;;;6.53;3.28;;;;;;;15.91;79.20;102322.63;4771239;30;20135;-79
2022/07/12 00:55:18;;;;;;;3.63;2.75;;;;;;;15.89;79.06;102329.78;4770829;30;20031;-79
2022/07/12 00:57:44;;;;;;;3.85;2.95;;;;;;;15.85;77.20;102317.41;4771269;30;20093;-79
2022/07/12 01:00:12;;;;;;;3.55;2.83;;;;;;;15.82;79.20;102321.91;4754960;30;20063;-79
2022/07/12 01:02:38;;;;;;;3.45;2.97;;;;;;;15.80;77.99;102327.31;4771181;30;20093;-79
2022/07/12 01:05:05;;;;;;;5.57;2.97;;;;;;;15.77;78.78;102321.13;4771020;30;20035;-79
2022/07/12 01:07:31;;;;;;;4.43;3.10;;;;;;;15.75;78.24;102339.88;4755157;30;20458;-79
2022/07/12 01:09:58;;;;;;;4.88;3.20;;;;;;;15.70;78.62;102328.38;4771213;30;20127;-79
2022/07/12 01:12:24;;;;;;;3.75;3.03;;;;;;;15.67;77.49;102333.75;4754942;30;20327;-79
2022/07/12 01:14:51;;;;;;;4.13;2.97;;;;;;;15.66;78.49;102335.56;4770846;30;20051;-79
2022/07/12 01:17:25;;;;;;;3.80;2.83;;;;;;;15.67;78.76;102331.97;4754476;30;20059;-79
2022/07/12 01:19:53;;;;;;;4.47;3.55;;;;;;;15.68;80.94;102339.09;4770908;30;20043;-79
2022/07/12 01:22:20;;;;;;;4.97;3.00;;;;;;;15.70;81.05;102339.06;4759362;30;20048;-79
2022/07/12 01:24:46;;;;;;;4.15;3.20;;;;;;;15.71;80.98;102332.84;4770765;30;20028;-79
2022/07/12 01:27:12;;;;;;;11.13;4.00;;;;;;;15.68;81.17;102349.75;4770999;30;20075;-79
2022/07/12 01:29:39;;;;;;;8.68;3.55;;;;;;;15.62;81.56;102347.19;4770626;30;20507;-80
2022/07/12 01:32:24;;;;;;;5.10;3.50;;;;;;;15.61;81.07;102342.78;4770804;30;20134;-80
2022/07/12 01:34:51;;;;;;;4.53;3.30;;;;;;;15.53;81.30;102354.50;4754669;30;20065;-80
2022/07/12 01:37:17;;;;;;;5.43;3.30;;;;;;;15.43;80.95;102356.44;4739881;30;20069;-80
2022/07/12 01:39:44;;;;;;;8.65;2.90;;;;;;;15.36;79.23;102353.03;4770501;30;20043;-80
2022/07/12 01:42:10;;;;;;;5.88;2.97;;;;;;;15.33;78.88;102353.09;4770777;30;20083;-80
2022/07/12 01:44:36;;;;;;;4.57;3.15;;;;;;;15.31;78.60;102354.91;4769550;30;20095;-80
2022/07/12 01:47:02;;;;;;;5.35;3.22;;;;;;;15.26;78.30;102349.63;4770530;30;20043;-80
2022/07/12 01:49:28;;;;;;;4.35;3.25;;;;;;;15.27;79.64;102351.38;4754338;30;20114;-79
2022/07/12 01:51:58;;;;;;;5.30;3.47;;;;;;;15.23;79.86;102355.03;4770439;30;20127;-80
2022/07/12 01:54:25;;;;;;;5.10;3.60;;;;;;;15.22;79.90;102350.59;4753989;30;20081;-80
2022/07/12 01:56:52;;;;;;;3.40;2.92;;;;;;;15.20;78.53;102356.84;4770336;30;20054;-80
2022/07/12 01:59:18;;;;;;;7.15;3.35;;;;;;;15.16;79.88;102353.38;4770310;30;20112;-80
2022/07/12 02:01:45;;;;;;;5.18;3.20;;;;;;;15.11;79.73;102349.00;4770210;30;20445;-80
2022/07/12 02:04:10;;;;;;;3.67;3.17;;;;;;;15.08;81.09;102339.25;4770270;30;20123;-80
2022/07/12 02:06:38;;;;;;;4.22;2.97;;;;;;;15.02;78.69;102342.91;4770291;30;20114;-80
2022/07/12 02:09:04;;;;;;;5.53;3.08;;;;;;;14.96;78.33;102345.69;4754049;30;20043;-80
2022/07/12 02:11:30;;;;;;;4.18;2.90;;;;;;;14.93;78.61;102342.19;4769795;30;20048;-80
2022/07/12 02:13:56;;;;;;;5.78;3.60;;;;;;;14.90;80.18;102340.44;4754110;30;20039;-80
2022/07/12 02:16:21;;;;;;;5.20;3.42;;;;;;;14.89;80.53;102337.81;4753625;30;20035;-80
2022/07/12 02:18:47;;;;;;;6.13;3.15;;;;;;;14.86;79.50;102335.19;4758594;30;20520;-80
2022/07/12 02:21:12;;;;;;;5.32;3.78;;;;;;;14.82;79.75;102331.69;4770277;30;20097;-80
2022/07/12 02:23:38;;;;;;;7.07;3.58;;;;;;;14.79;79.42;102327.28;4769996;30;20131;-80
2022/07/12 02:26:04;;;;;;;5.03;3.40;;;;;;;14.81;79.78;102333.50;4753921;30;20072;-80
2022/07/12 02:28:29;;;;;;;6.63;3.72;;;;;;;14.76;79.74;102326.44;4768076;30;20082;-80
2022/07/12 02:30:55;;;;;;;4.97;3.67;;;;;;;14.74;79.74;102337.16;4769853;30;20055;-80
2022/07/12 02:33:20;;;;;;;11.85;3.95;;;;;;;14.73;80.04;102326.50;4753808;30;20039;-80
2022/07/12 02:35:46;;;;;;;5.30;3.90;;;;;;;14.66;80.68;102336.38;4753898;30;20461;-80
2022/07/12 02:38:11;;;;;;;5.68;3.97;;;;;;;14.59;81.78;102332.94;4769944;30;20484;-80
2022/07/12 02:40:55;;;;;;;4.90;3.83;;;;;;;14.58;81.63;102340.94;4753561;30;20097;-80
2022/07/12 02:43:20;;;;;;;7.20;4.10;;;;;;;14.55;80.61;102338.31;4756087;30;20536;-80
2022/07/12 02:45:46;;;;;;;4.30;3.85;;;;;;;14.52;80.82;102336.56;4769657;30;20123;-80
2022/07/12 02:48:12;;;;;;;6.55;4.28;;;;;;;14.50;81.42;102326.81;4769886;30;20416;-81
2022/07/12 02:50:40;;;;;;;5.15;3.88;;;;;;;14.46;81.17;102339.28;4769239;30;20047;-81
2022/07/12 02:53:07;;;;;;;4.88;3.97;;;;;;;14.42;81.69;102332.25;4769856;30;20032;-81
2022/07/12 02:55:33;;;;;;;4.63;4.10;;;;;;;14.43;80.90;102339.34;4769233;30;20050;-81
2022/07/12 02:57:58;;;;;;;6.10;4.35;;;;;;;14.40;82.01;102331.41;4753523;30;20043;-81
2022/07/12 03:00:24;;;;;;;4.97;4.20;;;;;;;14.36;81.84;102335.00;4738534;30;20047;-81
2022/07/12 03:02:49;;;;;;;4.85;4.07;;;;;;;14.35;81.75;102336.78;4753486;30;20120;-81
2022/07/12 03:05:15;;;;;;;4.43;4.03;;;;;;;14.32;81.82;102342.16;4769272;30;20028;-81
2022/07/12 03:07:41;;;;;;;6.18;4.68;;;;;;;14.30;81.15;102335.97;4753106;30;20066;-81
2022/07/12 03:10:07;;;;;;;7.57;4.40;;;;;;;14.26;82.02;102339.56;4753039;30;20035;-81
2022/07/12 03:12:33;;;;;;;5.45;4.07;;;;;;;14.25;80.42;102339.59;4769305;30;20369;-81
2022/07/12 03:14:58;;;;;;;5.47;4.35;;;;;;;14.25;81.07;102339.59;4753175;30;20047;-80
2022/07/12 03:17:24;;;;;;;6.32;5.03;;;;;;;14.24;81.46;102351.16;4769045;30;20078;-81
2022/07/12 03:19:49;;;;;;;7.85;4.28;;;;;;;14.20;81.39;102337.88;4738260;30;20506;-81
2022/07/12 03:22:15;;;;;;;6.38;4.35;;;;;;;14.19;81.26;102344.13;4738258;30;20047;-81
2022/07/12 03:24:40;;;;;;;5.95;4.65;;;;;;;14.17;80.86;102335.25;4768935;30;20056;-81
2022/07/12 03:27:06;;;;;;;6.75;4.32;;;;;;;14.16;80.19;102337.94;4753167;30;20213;-81
2022/07/12 03:29:31;;;;;;;11.68;4.60;;;;;;;14.16;81.64;102335.25;4752892;30;20413;-81
2022/07/12 03:31:57;;;;;;;4.88;4.03;;;;;;;14.16;80.87;102337.94;4768783;30;20046;-81
2022/07/12 03:34:22;;;;;;;5.22;3.83;;;;;;;14.15;81.07;102334.38;4768813;30;20043;-81
2022/07/12 03:36:48;;;;;;;5.70;4.30;;;;;;;14.14;82.17;102332.63;4768805;30;20058;-81
2022/07/12 03:39:13;;;;;;;7.30;4.40;;;;;;;14.12;82.92;102336.19;4768563;30;20132;-81
2022/07/12 03:41:39;;;;;;;5.45;4.85;;;;;;;14.11;83.97;102337.09;4752651;30;20459;-81
2022/07/12 03:44:05;;;;;;;5.40;4.70;;;;;;;14.09;83.79;102342.44;4768500;30;20504;-81
2022/07/12 03:46:32;;;;;;;6.97;4.68;;;;;;;14.07;84.48;102338.03;4768585;30;20036;-81
2022/07/12 03:48:59;;;;;;;6.15;4.90;;;;;;;14.13;85.83;102336.19;4752472;30;20040;-81
2022/07/12 03:51:25;;;;;;;8.95;4.80;;;;;;;14.10;82.80;102340.69;4752366;30;20119;-81
2022/07/12 03:53:51;;;;;;;5.80;4.68;;;;;;;14.09;84.20;102342.44;4768218;30;20115;-81
2022/07/12 03:59:00;;;;;;;4.95;4.15;;;;;;;14.04;82.89;102338.97;4768326;30;20451;-81
2022/07/12 04:01:26;;;;;;;5.07;4.22;;;;;;;14.03;83.25;102333.66;4752554;30;20039;-81
2022/07/12 04:03:51;;;;;;;5.03;4.38;;;;;;;14.03;82.56;102326.56;4752127;30;20035;-81
2022/07/12 04:06:19;;;;;;;5.30;4.63;;;;;;;14.01;83.06;102330.13;4723326;30;20121;-81
2022/07/12 04:08:45;;;;;;;6.25;4.57;;;;;;;14.01;84.12;102325.69;4726598;30;20050;-81
2022/07/12 04:11:10;;;;;;;5.13;4.57;;;;;;;14.02;83.92;102334.56;4771889;30;20130;-81
2022/07/12 04:13:36;;;;;;;7.13;4.72;;;;;;;14.05;85.27;102327.41;4755675;30;20047;-81
2022/07/12 04:16:02;;;;;;;6.15;5.50;;;;;;;14.06;87.05;102331.84;4740136;30;20040;-81
2022/07/12 04:18:28;;;;;;;6.30;5.18;;;;;;;14.07;85.14;102338.94;4771523;30;20063;-81
2022/07/12 04:20:53;;;;;;;6.57;5.22;;;;;;;14.10;84.27;102338.91;4771661;30;20118;-81
2022/07/12 04:23:19;;;;;;;5.43;4.68;;;;;;;14.13;85.21;102345.97;4755558;30;20132;-81
2022/07/12 04:25:44;;;;;;;9.02;5.72;;;;;;;14.18;86.56;102358.31;4755548;30;20059;-81
2022/07/12 04:28:10;;;;;;;7.50;5.68;;;;;;;14.20;86.68;102353.84;4771758;30;20058;-81
2022/07/12 04:30:35;;;;;;;7.78;5.55;;;;;;;14.24;87.28;102360.00;4755078;30;20032;-81
2022/07/12 04:33:00;;;;;;;6.90;6.05;;;;;;;14.29;87.10;102365.28;4771569;30;20048;-80
2022/07/12 04:35:26;;;;;;;6.80;5.43;;;;;;;14.28;86.23;102369.75;4740764;30;20032;-81
2022/07/12 04:37:51;;;;;;;9.70;4.95;;;;;;;14.28;84.98;102371.53;4771897;30;20039;-81
2022/07/12 04:40:17;;;;;;;7.55;5.05;;;;;;;14.33;85.79;102367.03;4755207;30;20024;-81
2022/07/12 04:42:43;;;;;;;6.10;4.75;;;;;;;14.36;86.04;102366.97;4711834;30;20048;-81
2022/07/12 04:45:09;;;;;;;7.10;5.68;;;;;;;14.39;86.18;102358.94;4752362;30;20511;-81
2022/07/12 04:47:36;;;;;;;7.10;4.72;;;;;;;14.38;85.45;102351.84;4736976;30;20060;-81
2022/07/12 04:50:07;;;;;;;6.90;5.72;;;;;;;14.48;85.73;102358.81;4734032;30;20117;-81
2022/07/12 04:52:35;;;;;;;10.98;5.32;;;;;;;14.52;84.61;102354.34;4737367;30;20120;-81
2022/07/12 04:55:01;;;;;;;7.55;5.57;;;;;;;14.56;84.25;102346.31;4740470;30;20126;-81
2022/07/12 04:57:27;;;;;;;8.15;5.90;;;;;;;14.63;84.04;102347.97;4737606;30;20123;-81
2022/07/12 04:59:52;;;;;;;6.88;4.78;;;;;;;14.73;84.63;102350.50;4716939;30;20039;-81
2022/07/12 05:02:18;;;;;;;7.55;5.20;;;;;;;14.79;83.10;102353.97;4725697;30;20035;-81
2022/07/12 05:04:44;;;;;;;9.15;6.70;;;;;;;14.95;86.13;102351.03;4711692;30;20047;-81
2022/07/12 05:07:10;;;;;;;8.15;6.90;;;;;;;15.09;86.01;102358.84;4711501;30;20101;-81
2022/07/12 05:09:36;;;;;;;7.72;6.90;;;;;;;15.24;85.78;102358.56;4740260;30;20379;-81
2022/07/12 05:12:02;;;;;;;9.10;7.75;;;;;;;15.38;86.01;102359.22;4740151;30;20134;-81
2022/07/12 05:14:28;;;;;;;13.15;7.82;;;;;;;15.52;86.07;102361.63;4739421;30;20404;-81
2022/07/12 05:16:54;;;;;;;8.93;7.25;;;;;;;15.65;85.23;102372.97;4711294;30;20462;-81
2022/07/12 05:19:23;;;;;;;31.25;8.77;;;;;;;15.83;86.02;102371.78;4739608;30;20096;-81
2022/07/12 05:21:49;;;;;;;17.27;8.13;;;;;;;15.93;85.29;102365.34;4739090;30;20423;-81
2022/07/12 05:24:15;;;;;;;15.68;8.88;;;;;;;16.07;85.33;102376.63;4730011;30;20050;-81
2022/07/12 05:26:41;;;;;;;11.10;8.00;;;;;;;16.20;84.73;102379.94;4739619;30;20035;-81
2022/07/12 05:29:07;;;;;;;9.80;8.80;;;;;;;16.34;84.78;102382.31;4740074;30;20044;-81
2022/07/12 05:31:33;;;;;;;12.18;8.43;;;;;;;16.48;83.61;102385.56;4710480;30;20035;-81
2022/07/12 05:34:00;;;;;;;8.95;8.05;;;;;;;16.59;83.30;102393.34;4739721;30;20120;-81
2022/07/12 05:36:26;;;;;;;11.85;8.48;;;;;;;16.69;84.02;102389.56;4739537;30;20066;-81
2022/07/12 05:38:52;;;;;;;9.27;8.38;;;;;;;16.80;82.87;102388.47;4754318;30;20036;-81
2022/07/12 05:41:18;;;;;;;11.70;9.10;;;;;;;16.88;83.50;102392.72;4739241;30;20497;-81
2022/07/12 05:43:46;;;;;;;12.10;8.45;;;;;;;16.99;82.38;102395.16;4724929;30;20132;-81
2022/07/12 05:46:12;;;;;;;11.23;8.85;;;;;;;17.14;82.74;102401.94;4739114;30;20040;-81
2022/07/12 05:48:38;;;;;;;9.43;8.52;;;;;;;17.23;82.60;102409.72;4749398;30;20571;-81
2022/07/12 05:53:48;;;;;;;10.38;8.50;;;;;;;17.47;81.90;102416.25;4740703;30;20154;-81
2022/07/12 05:56:14;;;;;;;10.77;9.13;;;;;;;17.52;81.32;102424.19;4751755;30;20035;-81
2022/07/12 05:58:39;;;;;;;9.50;8.48;;;;;;;17.57;81.49;102423.13;4719668;30;20044;-81
2022/07/12 06:01:06;;;;;;;9.13;8.13;;;;;;;17.57;80.46;102423.13;4735360;30;20039;-81
2022/07/12 06:03:32;;;;;;;14.73;8.75;;;;;;;17.62;80.91;102420.34;4750378;30;20044;-82
2022/07/12 06:05:57;;;;;;;12.95;8.40;;;;;;;17.70;80.93;102426.38;4738192;30;20059;-81
2022/07/12 06:08:23;;;;;;;9.27;8.38;;;;;;;17.79;79.37;102434.16;4740843;30;20550;-81
2022/07/12 06:10:48;;;;;;;12.27;8.20;;;;;;;17.88;80.44;102434.88;4749247;30;20140;-81
2022/07/12 06:13:14;;;;;;;9.27;8.10;;;;;;;17.92;79.71;102429.38;4738663;30;20046;-81
2022/07/12 06:15:40;;;;;;;10.05;7.93;;;;;;;18.02;78.98;102427.31;4735791;30;20112;-81
2022/07/12 06:18:06;;;;;;;8.90;7.68;;;;;;;18.11;78.78;102427.06;4738068;30;20056;-81
2022/07/12 06:20:32;;;;;;;8.82;7.30;;;;;;;18.22;78.47;102429.44;4743880;30;20047;-81
2022/07/12 06:22:58;;;;;;;11.90;7.60;;;;;;;18.35;79.25;102421.94;4736564;30;20416;-82
2022/07/12 06:25:24;;;;;;;15.10;8.07;;;;;;;18.42;78.72;102427.09;4752884;30;20358;-81
2022/07/12 06:27:50;;;;;;;18.70;8.63;;;;;;;18.44;78.49;102421.66;4736873;30;20051;-82
2022/07/12 06:30:20;;;;;;;10.43;7.65;;;;;;;18.47;76.01;102422.47;4737547;30;20045;-81
2022/07/12 06:32:46;;;;;;;8.85;7.95;;;;;;;18.56;78.25;102423.09;4733409;30;20062;-81
2022/07/12 06:35:13;;;;;;;8.68;7.78;;;;;;;18.64;78.01;102419.28;4737666;30;20028;-81
2022/07/12 06:37:38;;;;;;;11.35;8.15;;;;;;;18.85;78.57;102411.50;4769152;30;20059;-82
2022/07/12 06:40:06;;;;;;;12.18;8.15;;;;;;;18.97;76.92;102419.19;4752802;30;20032;-81
2022/07/12 06:42:32;;;;;;;16.58;8.88;;;;;;;19.07;76.76;102423.31;4738507;30;20035;-81
2022/07/12 06:44:58;;;;;;;26.95;9.73;;;;;;;19.12;76.39;102425.84;4738743;30;20106;-82
2022/07/12 06:47:24;;;;;;;11.77;9.23;;;;;;;19.20;76.10;102423.78;4738666;30;20134;-81
2022/07/12 06:49:50;;;;;;;10.73;8.90;;;;;;;19.35;75.61;102417.03;4752906;30;20036;-82
2022/07/12 06:52:15;;;;;;;12.85;9.38;;;;;;;19.45;74.65;102425.66;4724090;30;20044;-82
2022/07/12 06:54:41;;;;;;;11.52;8.75;;;;;;;19.57;74.92;102419.88;4738458;30;20477;-82
2022/07/12 06:57:07;;;;;;;10.80;8.00;;;;;;;19.69;74.55;102424.84;4738524;30;20043;-82
2022/07/12 06:59:32;;;;;;;13.30;8.15;;;;;;;19.73;73.21;102423.81;4738000;30;20069;-82
2022/07/12 07:01:58;;;;;;;9.75;7.82;;;;;;;19.88;73.63;102417.03;4752894;30;20043;-82
2022/07/12 07:04:24;;;;;;;12.20;8.02;;;;;;;20.06;73.86;102428.91;4768821;30;20073;-82
2022/07/12 07:06:50;;;;;;;14.95;8.65;;;;;;;20.13;73.00;102427.75;4752681;30;20178;-82
2022/07/12 07:09:16;;;;;;;19.83;7.47;;;;;;;20.21;72.15;102430.16;4768578;30;20201;-82
2022/07/12 07:11:42;;;;;;;14.23;7.40;;;;;;;20.31;71.63;102426.19;4752378;30;20452;-82
2022/07/12 07:14:07;;;;;;;18.83;8.18;;;;;;;20.38;70.83;102427.72;4768447;30;20089;-81
2022/07/12 07:16:33;;;;;;;14.18;7.07;;;;;;;20.44;70.24;102426.59;4763643;30;20090;-82
2022/07/12 07:18:58;;;;;;;14.20;7.63;;;;;;;20.57;71.74;102427.03;4746491;30;20068;-82
2022/07/12 07:21:24;;;;;;;12.68;7.45;;;;;;;20.70;69.69;102428.31;4747424;30;20037;-82
2022/07/12 07:23:50;;;;;;;17.25;7.85;;;;;;;20.84;69.30;102419.69;4758937;30;20162;-83
2022/07/12 07:26:16;;;;;;;10.43;8.13;;;;;;;20.98;69.94;102425.41;4766517;30;20135;-82
2022/07/12 07:31:26;;;;;;;9.65;8.35;;;;;;;21.11;68.11;102424.91;4768315;30;20054;-82
2022/07/12 07:33:51;;;;;;;12.93;6.97;;;;;;;21.29;68.38;102429.53;4768244;30;20048;-82
2022/07/12 07:36:17;;;;;;;7.75;5.65;;;;;;;21.41;66.51;102420.97;4752578;30;20035;-82
2022/07/12 07:38:42;;;;;;;9.48;6.60;;;;;;;21.46;65.90;102421.66;4768228;30;20055;-83
2022/07/12 07:41:08;;;;;;;8.15;6.13;;;;;;;21.46;65.34;102416.28;4751753;30;20193;-82
2022/07/12 07:43:33;;;;;;;8.23;4.65;;;;;;;21.55;65.30;102414.13;4768240;30;20040;-82
2022/07/12 07:46:01;;;;;;;8.23;4.93;;;;;;;21.59;63.83;102415.75;4752358;30;20063;-82
2022/07/12 07:48:27;;;;;;;8.20;5.07;;;;;;;21.59;64.91;102427.41;4768255;30;20027;-82
2022/07/12 07:50:52;;;;;;;10.05;4.53;;;;;;;21.59;64.65;102413.91;4752266;30;20070;-82
2022/07/12 07:53:18;;;;;;;8.20;4.75;;;;;;;21.63;65.23;102415.53;4752231;30;20126;-82
2022/07/12 07:55:43;;;;;;;7.40;4.78;;;;;;;21.62;65.31;102412.91;4767981;30;20051;-82
2022/07/12 07:58:09;;;;;;;11.88;5.03;;;;;;;21.70;65.66;102421.53;4752421;30;20456;-82
2022/07/12 08:00:34;;;;;;;8.95;4.57;;;;;;;21.85;65.27;102418.16;4751848;30;20047;-82
2022/07/12 08:03:00;;;;;;;8.50;4.78;;;;;;;21.94;63.94;102422.28;4737772;30;20051;-82
2022/07/12 08:05:25;;;;;;;7.80;5.28;;;;;;;22.02;63.77;102420.09;4737462;30;20369;-82
2022/07/12 08:07:51;;;;;;;7.13;6.10;;;;;;;22.02;63.29;102416.53;4752095;30;20039;-82
2022/07/12 08:10:16;;;;;;;7.18;5.63;;;;;;;22.09;64.20;102421.56;4764395;30;20120;-82
2022/07/12 08:12:42;;;;;;;11.73;6.00;;;;;;;22.25;64.66;102419.06;4765336;30;20062;-82
2022/07/12 08:15:08;;;;;;;9.50;6.55;;;;;;;22.36;63.11;102415.91;4751988;30;20049;-82
2022/07/12 08:17:33;;;;;;;14.43;6.03;;;;;;;22.56;63.36;102422.19;4768089;30;20448;-82
2022/07/12 08:19:59;;;;;;;12.98;7.25;;;;;;;22.65;61.90;102419.03;4737207;30;20051;-82
2022/07/12 08:22:24;;;;;;;14.57;6.97;;;;;;;22.65;63.00;102417.22;4737234;30;20049;-81
2022/07/12 08:24:50;;;;;;;14.88;6.90;;;;;;;22.72;62.24;102421.41;4751711;30;20047;-82
2022/07/12 08:27:16;;;;;;;8.10;6.10;;;;;;;22.81;61.30;102427.28;4751768;30;20031;-82
2022/07/12 08:29:41;;;;;;;10.70;6.65;;;;;;;22.92;60.95;102420.44;4751673;30;20058;-82
2022/07/12 08:32:07;;;;;;;9.82;6.40;;;;;;;22.92;60.52;102420.44;4737255;30;20051;-81
2022/07/12 08:34:34;;;;;;;8.85;5.75;;;;;;;22.94;61.30;102431.13;4768000;30;20055;-82
2022/07/12 08:36:59;;;;;;;11.73;7.18;;;;;;;22.88;60.22;102423.34;4767817;30;20031;-81
2022/07/12 08:39:25;;;;;;;6.90;6.07;;;;;;;22.95;60.02;102430.22;4751902;30;20089;-81
2022/07/12 08:41:50;;;;;;;11.02;6.47;;;;;;;23.02;59.26;102425.38;4752065;30;20039;-82
2022/07/12 08:44:16;;;;;;;7.45;6.50;;;;;;;23.15;59.40;102427.41;4751644;30;20039;-82
2022/07/12 08:46:41;;;;;;;10.15;6.57;;;;;;;23.26;58.44;102426.00;4737375;30;20116;-82
2022/07/12 08:49:07;;;;;;;8.82;6.38;;;;;;;23.37;58.94;102434.47;4736915;30;20427;-82
2022/07/12 08:51:33;;;;;;;8.25;6.75;;;;;;;23.46;57.35;102444.78;4758271;30;20073;-82
2022/07/12 08:54:10;;;;;;;8.25;7.43;;;;;;;23.53;57.16;102438.13;4738897;30;20036;-82
2022/07/12 08:56:43;;;;;;;11.75;7.53;;;;;;;23.47;56.52;102438.44;4762193;30;20047;-82
2022/07/12 08:59:12;;;;;;;10.50;7.25;;;;;;;23.57;56.88;102446.97;4751803;30;20497;-81
2022/07/12 09:01:42;;;;;;;7.72;5.93;;;;;;;23.78;56.77;102442.28;4751679;30;20059;-81
2022/07/12 09:04:21;;;;;;;10.73;7.13;;;;;;;23.91;56.69;102440.72;4768620;30;20063;-81
2022/07/12 09:06:47;;;;;;;11.85;7.05;;;;;;;23.90;55.60;102440.78;4746107;30;20465;-81
2022/07/12 09:09:29;;;;;;;15.15;6.72;;;;;;;23.97;55.92;102440.38;4724157;30;20060;-81
2022/07/12 09:11:55;;;;;;;8.88;5.70;;;;;;;24.13;55.93;102436.84;4770601;30;20411;-82
2022/07/12 09:14:20;;;;;;;8.05;5.35;;;;;;;24.24;56.58;102438.00;4754575;30;20062;-81
2022/07/12 09:17:04;;;;;;;11.80;6.38;;;;;;;24.32;54.49;102437.59;4770830;30;20154;-81
2022/07/12 09:19:30;;;;;;;8.75;6.35;;;;;;;24.25;53.62;102436.16;4758041;30;20047;-81
2022/07/12 09:21:56;;;;;;;13.02;5.80;;;;;;;24.37;53.85;102427.38;4739817;30;20035;-81
2022/07/12 09:24:26;;;;;;;7.38;5.18;;;;;;;24.37;53.39;102430.09;4757961;30;20479;-82
2022/07/12 09:27:03;;;;;;;7.97;5.88;;;;;;;24.44;53.60;102433.34;4754629;30;20520;-81
2022/07/12 09:29:30;;;;;;;7.90;6.15;;;;;;;24.56;53.13;102424.56;4769233;30;20086;-81
2022/07/12 09:37:25;;;;;;;7.85;4.93;;;;;;;24.76;52.38;102422.56;4756818;30;20044;-81
2022/07/12 09:39:53;;;;;;;6.70;4.47;;;;;;;24.84;52.06;102423.88;4754500;30;20563;-81
2022/07/12 09:42:19;;;;;;;7.47;4.45;;;;;;;24.83;52.34;102427.56;4770628;30;20058;-82
2022/07/12 09:44:45;;;;;;;7.13;4.35;;;;;;;24.93;52.16;102422.47;4770202;30;20039;-81
2022/07/12 09:47:13;;;;;;;8.45;4.10;;;;;;;24.97;51.30;102426.75;4770020;30;20055;-81
2022/07/12 09:49:44;;;;;;;10.02;3.45;;;;;;;24.94;51.85;102432.34;4769996;30;20396;-81
2022/07/12 09:52:21;;;;;;;5.25;4.05;;;;;;;25.07;50.42;102425.28;4754089;30;20074;-82
2022/07/12 09:54:50;;;;;;;8.98;4.53;;;;;;;25.29;49.41;102424.03;4769973;30;20054;-81
2022/07/12 09:57:43;;;;;;;7.30;4.43;;;;;;;25.44;50.66;102424.97;4770196;30;20036;-82
2022/07/12 10:00:11;;;;;;;7.45;5.03;;;;;;;25.54;49.08;102412.59;4753651;30;20143;-81
2022/07/12 10:02:38;;;;;;;11.27;4.50;;;;;;;25.64;49.65;102407.47;4769986;30;20050;-81
2022/07/12 10:05:07;;;;;;;6.15;4.95;;;;;;;25.72;48.26;102416.91;4752868;30;20058;-81
2022/07/12 10:07:33;;;;;;;6.53;3.95;;;;;;;25.73;48.82;102410.50;4754242;30;20047;-81
2022/07/12 10:09:59;;;;;;;10.48;3.90;;;;;;;26.05;48.11;102402.25;4769755;30;20793;-82
2022/07/12 10:12:25;;;;;;;15.98;4.10;;;;;;;26.30;48.59;102397.97;4746474;30;20119;-81
2022/07/12 10:15:08;;;;;;;5.63;4.13;;;;;;;26.44;49.33;102394.38;4753829;30;20142;-82
2022/07/12 10:17:34;;;;;;;6.13;4.13;;;;;;;26.43;48.77;102388.06;4769533;30;20047;-81
2022/07/12 10:20:18;;;;;;;7.57;4.00;;;;;;;26.18;48.80;102392.34;4753766;30;20035;-81
2022/07/12 10:22:44;;;;;;;8.55;4.07;;;;;;;26.12;48.94;102400.03;4769840;30;20043;-82
2022/07/12 10:25:25;;;;;;;8.20;4.57;;;;;;;26.31;48.11;102381.59;4769370;30;20088;-82
2022/07/12 10:27:51;;;;;;;6.57;4.63;;;;;;;26.43;48.45;102388.06;4753518;30;20047;-82
2022/07/12 10:30:19;;;;;;;5.50;3.60;;;;;;;26.67;47.67;102387.47;4769160;30;20108;-81
2022/07/12 10:32:46;;;;;;;4.78;4.05;;;;;;;26.70;47.52;102393.56;4739105;30;20055;-81
2022/07/12 10:35:15;;;;;;;7.00;4.57;;;;;;;26.92;46.17;102395.75;4769052;30;20035;-82
2022/07/12 10:37:41;;;;;;;7.95;4.10;;;;;;;27.13;46.08;102401.59;4769313;30;20337;-81
2022/07/12 10:40:18;;;;;;;8.10;3.88;;;;;;;27.23;47.19;102397.31;4769066;30;20035;-82
2022/07/12 10:43:04;;;;;;;6.25;3.90;;;;;;;27.08;47.46;102403.75;4769152;30;20056;-81
2022/07/12 10:45:32;;;;;;;10.25;3.80;;;;;;;26.94;46.16;102398.38;4766409;30;20055;-82
2022/07/12 10:47:58;;;;;;;7.03;3.25;;;;;;;26.94;47.41;102401.97;4753039;30;20485;-81
2022/07/12 10:50:43;;;;;;;5.82;2.80;;;;;;;27.10;47.67;102395.47;4768923;30;20078;-82
2022/07/12 10:53:33;;;;;;;5.85;3.80;;;;;;;27.25;47.85;102399.94;4753086;30;20101;-82
2022/07/12 10:56:14;;;;;;;4.95;3.10;;;;;;;27.53;45.98;102398.03;4752491;30;20039;-81
2022/07/12 10:58:53;;;;;;;5.05;2.78;;;;;;;27.63;46.00;102401.88;4752710;30;20446;-81
2022/07/12 11:01:21;;;;;;;4.25;2.80;;;;;;;27.80;44.50;102409.72;4738248;30;20389;-81
2022/07/12 11:03:50;;;;;;;4.57;2.83;;;;;;;27.81;44.95;102408.72;4752806;30;20484;-80
2022/07/12 11:06:21;;;;;;;10.82;3.47;;;;;;;27.84;44.07;102394.06;4769029;30;20055;-82
2022/07/12 11:08:51;;;;;;;6.93;2.70;;;;;;;28.08;42.26;102411.38;4768956;30;20128;-81
2022/07/12 11:11:17;;;;;;;5.07;2.70;;;;;;;28.16;41.96;102399.94;4753107;30;20486;-81
2022/07/12 11:13:43;;;;;;;3.90;2.42;;;;;;;28.30;43.53;102390.78;4769038;30;20292;-82
2022/07/12 11:16:08;;;;;;;6.10;2.70;;;;;;;28.34;42.26;102386.84;4752753;30;20429;-81
2022/07/12 11:18:36;;;;;;;3.75;2.67;;;;;;;28.23;42.83;102394.91;4768594;30;20070;-81
2022/07/12 11:21:02;;;;;;;10.20;2.95;;;;;;;28.23;42.15;102390.34;4769000;30;20043;-81
2022/07/12 11:23:29;;;;;;;9.82;3.58;;;;;;;28.32;43.32;102388.81;4768794;30;20083;-82
2022/07/12 11:25:59;;;;;;;3.95;2.50;;;;;;;28.30;43.14;102393.50;4768880;30;20027;-81
2022/07/12 11:28:27;;;;;;;4.20;2.38;;;;;;;28.48;43.39;102385.84;4768789;30;20485;-82
2022/07/12 11:31:00;;;;;;;4.95;2.63;;;;;;;28.43;41.94;102379.84;4768702;30;20480;-82
2022/07/12 11:33:29;;;;;;;8.52;2.50;;;;;;;28.64;43.67;102369.25;4768478;30;20048;-82
2022/07/12 11:35:55;;;;;;;6.82;3.08;;;;;;;28.64;41.74;102367.41;4768586;30;20389;-81
2022/07/12 11:38:25;;;;;;;5.43;3.67;;;;;;;28.58;41.67;102369.69;4737569;30;20067;-81